createdAt,value
2019-01-04T00:00:30.917Z,-0.10
2019-01-04T00:03:00.560Z,-0.05
2019-01-04T00:05:27.988Z,-0.02
2019-01-04T00:07:56.164Z,-0.05
2019-01-04T00:10:22.863Z,0.08
2019-01-04T00:12:50.131Z,0.14
2019-01-04T00:15:18.340Z,0.14
2019-01-04T00:17:46.245Z,0.08
2019-01-04T00:20:13.752Z,0.16
2019-01-04T00:22:41.234Z,0.13
2019-01-04T00:25:08.667Z,0.16
2019-01-04T00:27:35.916Z,0.07
2019-01-04T00:30:03.453Z,0.16
2019-01-04T00:32:32.050Z,0.19
2019-01-04T00:34:59.606Z,0.20
2019-01-04T00:37:26.395Z,0.13
2019-01-04T00:39:53.392Z,0.18
2019-01-04T00:42:20.073Z,0.14
2019-01-04T00:44:46.846Z,0.11
2019-01-04T00:47:13.923Z,0.22
2019-01-04T00:49:41.786Z,0.17
2019-01-04T00:52:09.049Z,0.17
2019-01-04T00:54:36.712Z,0.17
2019-01-04T00:57:14.471Z,0.23
2019-01-04T01:00:18.445Z,0.25
2019-01-04T01:03:07.858Z,0.28
2019-01-04T01:06:26.050Z,0.31
2019-01-04T01:09:31.095Z,0.33
2019-01-04T01:12:34.396Z,0.37
2019-01-04T01:15:38.270Z,0.44
2019-01-04T01:18:42.715Z,0.39
2019-01-04T01:21:50.317Z,0.54
2019-01-04T01:24:57.923Z,0.56
2019-01-04T01:27:50.496Z,0.57
2019-01-04T01:30:53.161Z,0.61
2019-01-04T01:33:38.517Z,0.61
2019-01-04T01:36:35.140Z,0.64
2019-01-04T01:39:36.873Z,0.81
2019-01-04T01:42:51.689Z,0.83
2019-01-04T01:45:59.037Z,0.90
2019-01-04T01:48:55.571Z,0.88
2019-01-04T01:51:43.887Z,0.88
2019-01-04T01:54:10.575Z,0.93
2019-01-04T01:56:37.601Z,0.97
2019-01-04T01:59:05.613Z,1.09
2019-01-04T02:01:32.387Z,1.03
2019-01-04T02:03:59.087Z,0.97
2019-01-04T02:06:26.014Z,1.02
2019-01-04T02:08:53.471Z,1.09
2019-01-04T02:11:20.268Z,1.17
2019-01-04T02:13:47.645Z,1.17
2019-01-04T02:16:14.593Z,1.29
2019-01-04T02:18:41.668Z,1.27
2019-01-04T02:21:08.927Z,1.29
2019-01-04T02:23:35.940Z,1.24
2019-01-04T02:26:03.121Z,1.31
2019-01-04T02:28:30.257Z,1.39
2019-01-04T02:30:57.375Z,1.46
2019-01-04T02:33:24.501Z,1.52
2019-01-04T02:35:51.923Z,1.46
2019-01-04T02:38:18.837Z,1.52
2019-01-04T02:40:45.629Z,1.52
2019-01-04T02:43:12.303Z,1.62
2019-01-04T02:45:39.011Z,1.45
2019-01-04T02:48:07.263Z,1.53
2019-01-04T02:50:34.815Z,1.53
2019-01-04T02:53:02.281Z,1.59
2019-01-04T02:55:29.703Z,1.60
2019-01-04T02:57:58.313Z,1.63
2019-01-04T03:00:25.901Z,1.64
2019-01-04T03:02:53.465Z,1.64
2019-01-04T03:05:20.482Z,1.69
2019-01-04T03:07:47.520Z,1.67
2019-01-04T03:10:14.411Z,1.71
2019-01-04T03:12:41.536Z,1.76
2019-01-04T03:15:09.422Z,1.74
2019-01-04T03:17:36.106Z,1.76
2019-01-04T03:20:04.394Z,1.76
2019-01-04T03:22:41.797Z,1.79
2019-01-04T03:25:09.455Z,1.78
2019-01-04T03:27:36.935Z,1.84
2019-01-04T03:30:04.884Z,1.85
2019-01-04T03:32:31.685Z,1.93
2019-01-04T03:34:59.172Z,1.96
2019-01-04T03:37:26.214Z,1.95
2019-01-04T03:39:53.073Z,1.99
2019-01-04T03:42:20.835Z,1.97
2019-01-04T03:44:48.378Z,2.04
2019-01-04T03:47:15.543Z,1.98
2019-01-04T03:49:42.841Z,1.99
2019-01-04T03:52:10.042Z,2.06
2019-01-04T03:54:37.226Z,2.02
2019-01-04T03:57:04.234Z,2.05
2019-01-04T03:59:31.305Z,2.16
2019-01-04T04:01:58.083Z,2.13
2019-01-04T04:04:25.501Z,2.13
2019-01-04T04:06:52.633Z,2.22
2019-01-04T04:09:19.317Z,2.26
2019-01-04T04:11:46.542Z,2.24
2019-01-04T04:14:13.223Z,2.20
2019-01-04T04:16:40.287Z,2.24
2019-01-04T04:19:08.173Z,2.34
2019-01-04T04:21:35.328Z,2.40
2019-01-04T04:24:01.989Z,2.35
2019-01-04T04:26:28.705Z,2.30
2019-01-04T04:28:55.367Z,2.27
2019-01-04T04:31:22.992Z,2.35
2019-01-04T04:33:49.887Z,2.36
2019-01-04T04:36:17.292Z,2.38
2019-01-04T04:38:44.023Z,2.29
2019-01-04T04:41:11.303Z,2.34
2019-01-04T04:43:37.983Z,2.37
2019-01-04T04:46:05.390Z,2.38
2019-01-04T04:48:36.335Z,2.40
2019-01-04T04:51:03.673Z,2.39
2019-01-04T04:53:30.379Z,2.41
2019-01-04T04:55:57.065Z,2.44
2019-01-04T04:58:24.829Z,2.40
2019-01-04T05:00:52.358Z,2.49
2019-01-04T05:03:19.311Z,2.53
2019-01-04T05:05:47.108Z,2.56
2019-01-04T05:08:14.120Z,2.57
2019-01-04T05:10:41.082Z,2.60
2019-01-04T05:13:07.795Z,2.59
2019-01-04T05:15:34.729Z,2.59
2019-01-04T05:18:02.366Z,2.60
2019-01-04T05:20:30.185Z,2.61
2019-01-04T05:22:57.970Z,2.61
2019-01-04T05:25:25.103Z,2.67
2019-01-04T05:27:51.780Z,2.74
2019-01-04T05:30:18.912Z,2.77
2019-01-04T05:32:47.281Z,2.73
2019-01-04T05:35:13.949Z,2.67
2019-01-04T05:37:41.669Z,2.75
2019-01-04T05:40:09.746Z,2.79
2019-01-04T05:42:37.199Z,2.78
2019-01-04T05:45:04.225Z,2.84
2019-01-04T05:47:31.914Z,2.48
2019-01-04T05:49:58.641Z,2.94
2019-01-04T05:52:25.339Z,3.02
2019-01-04T05:54:52.550Z,3.03
2019-01-04T05:57:20.608Z,3.08
2019-01-04T05:59:47.290Z,3.09
2019-01-04T06:02:14.319Z,3.15
2019-01-04T06:04:43.926Z,3.14
2019-01-04T06:07:10.598Z,3.12
2019-01-04T06:09:37.792Z,3.16
2019-01-04T06:12:05.126Z,3.17
2019-01-04T06:14:32.168Z,3.15
2019-01-04T06:16:59.666Z,3.21
2019-01-04T06:19:26.691Z,3.31
2019-01-04T06:21:54.566Z,3.25
2019-01-04T06:24:25.194Z,3.26
2019-01-04T06:27:09.173Z,3.26
2019-01-04T06:29:36.996Z,3.27
2019-01-04T06:32:04.461Z,3.33
2019-01-04T06:34:32.637Z,3.33
2019-01-04T06:36:59.329Z,3.37
2019-01-04T06:39:26.531Z,3.41
2019-01-04T06:41:53.880Z,3.39
2019-01-04T06:44:21.271Z,3.40
2019-01-04T06:47:12.648Z,3.40
2019-01-04T06:49:39.687Z,3.38
2019-01-04T06:52:06.846Z,3.35
2019-01-04T06:55:11.772Z,3.38
2019-01-04T06:57:38.614Z,3.36
2019-01-04T07:00:06.387Z,3.39
2019-01-04T07:02:34.174Z,3.36
2019-01-04T07:05:01.961Z,3.36
2019-01-04T07:07:28.652Z,3.38
2019-01-04T07:09:55.933Z,3.31
2019-01-04T07:12:22.600Z,3.37
2019-01-04T07:14:49.798Z,3.34
2019-01-04T07:17:17.037Z,3.42
2019-01-04T07:19:43.973Z,3.42
2019-01-04T07:22:11.007Z,3.45
2019-01-04T07:24:38.166Z,3.45
2019-01-04T07:27:05.100Z,3.44
2019-01-04T07:29:32.341Z,3.42
2019-01-04T07:32:00.582Z,3.43
2019-01-04T07:34:27.274Z,3.41
2019-01-04T07:36:56.191Z,3.49
2019-01-04T07:39:23.512Z,3.51
2019-01-04T07:41:50.568Z,3.54
2019-01-04T07:44:17.220Z,3.53
2019-01-04T07:46:44.415Z,3.57
2019-01-04T07:49:11.830Z,3.59
2019-01-04T07:51:39.195Z,3.64
2019-01-04T07:54:06.696Z,3.69
2019-01-04T07:56:33.601Z,3.73
2019-01-04T07:59:00.270Z,3.73
2019-01-04T08:01:27.675Z,3.73
2019-01-04T08:03:54.756Z,3.80
2019-01-04T08:06:25.877Z,3.82
2019-01-04T08:08:53.107Z,3.83
2019-01-04T08:11:19.770Z,3.89
2019-01-04T08:13:46.718Z,3.89
2019-01-04T08:16:13.765Z,3.89
2019-01-04T08:18:41.710Z,3.94
2019-01-04T08:21:08.402Z,3.91
2019-01-04T08:23:36.217Z,3.97
2019-01-04T08:26:03.240Z,3.93
2019-01-04T08:28:30.938Z,3.95
2019-01-04T08:30:57.974Z,3.96
2019-01-04T08:33:25.851Z,3.92
2019-01-04T08:35:53.098Z,3.94
2019-01-04T08:38:20.890Z,3.88
2019-01-04T08:40:47.992Z,3.94
2019-01-04T08:43:15.673Z,3.99
2019-01-04T08:45:42.738Z,4.02
2019-01-04T08:48:10.314Z,4.00
2019-01-04T08:50:37.330Z,3.98
2019-01-04T08:53:05.127Z,4.04
2019-01-04T08:55:32.398Z,4.06
2019-01-04T08:57:59.465Z,4.03
2019-01-04T09:00:26.994Z,3.98
2019-01-04T09:02:54.025Z,3.95
2019-01-04T09:05:20.736Z,3.95
2019-01-04T09:08:01.106Z,3.94
2019-01-04T09:10:28.346Z,3.91
2019-01-04T09:12:55.374Z,3.95
2019-01-04T09:15:22.741Z,3.95
2019-01-04T09:17:49.781Z,3.98
2019-01-04T09:20:16.907Z,4.00
2019-01-04T09:22:51.110Z,3.94
2019-01-04T09:25:18.413Z,3.94
2019-01-04T09:27:45.724Z,3.96
2019-01-04T09:30:14.020Z,4.00
2019-01-04T09:32:41.244Z,4.00
2019-01-04T09:35:08.972Z,4.04
2019-01-04T09:37:35.786Z,3.98
2019-01-04T09:40:04.065Z,3.92
2019-01-04T09:42:31.825Z,3.95
2019-01-04T09:44:58.619Z,4.00
2019-01-04T09:47:25.290Z,3.96
2019-01-04T09:49:51.958Z,3.97
2019-01-04T09:52:18.843Z,3.96
2019-01-04T09:54:47.998Z,4.02
2019-01-04T09:57:15.244Z,3.92
2019-01-04T09:59:42.150Z,3.93
2019-01-04T10:02:09.342Z,3.91
2019-01-04T10:04:36.038Z,3.94
2019-01-04T10:07:03.227Z,3.92
2019-01-04T10:09:30.147Z,3.96
2019-01-04T10:11:57.434Z,3.95
2019-01-04T10:14:24.892Z,3.96
2019-01-04T10:16:52.219Z,4.01
2019-01-04T10:19:19.702Z,4.15
2019-01-04T10:21:46.497Z,4.12
2019-01-04T10:24:14.496Z,4.36
2019-01-04T10:26:41.887Z,4.14
2019-01-04T10:29:08.994Z,4.17
2019-01-04T10:31:36.790Z,4.67
2019-01-04T10:34:04.317Z,4.24
2019-01-04T10:36:31.259Z,4.25
2019-01-04T10:38:58.620Z,4.32
2019-01-04T10:41:26.073Z,4.35
2019-01-04T10:43:52.841Z,4.35
2019-01-04T10:46:20.042Z,4.38
2019-01-04T10:48:46.810Z,4.32
2019-01-04T10:51:14.117Z,4.48
2019-01-04T10:53:41.863Z,4.53
2019-01-04T10:56:09.585Z,4.42
2019-01-04T10:58:36.267Z,4.42
2019-01-04T11:01:03.694Z,4.23
2019-01-04T11:03:31.253Z,4.68
2019-01-04T11:05:58.041Z,4.73
2019-01-04T11:08:25.385Z,4.66
2019-01-04T11:10:52.463Z,4.44
2019-01-04T11:13:19.810Z,4.53
2019-01-04T11:15:46.469Z,4.56
2019-01-04T11:18:14.147Z,4.54
2019-01-04T11:20:45.981Z,4.57
2019-01-04T11:23:50.121Z,4.56
2019-01-04T11:26:31.237Z,4.53
2019-01-04T11:29:11.648Z,5.54
2019-01-04T11:32:12.933Z,4.80
2019-01-04T11:35:17.339Z,4.87
2019-01-04T11:38:01.164Z,4.73
2019-01-04T11:41:10.887Z,4.73
2019-01-04T11:44:11.090Z,4.74
2019-01-04T11:47:19.997Z,4.63
2019-01-04T11:50:05.955Z,4.72
2019-01-04T11:52:37.877Z,4.71
2019-01-04T11:55:04.913Z,4.71
2019-01-04T11:57:31.589Z,4.58
2019-01-04T11:59:58.374Z,4.58
2019-01-04T12:02:26.399Z,4.58
2019-01-04T12:04:53.562Z,4.75
2019-01-04T12:07:20.255Z,4.71
2019-01-04T12:09:47.219Z,4.84
2019-01-04T12:12:14.264Z,4.87
2019-01-04T12:14:41.482Z,4.81
2019-01-04T12:17:09.318Z,4.76
2019-01-04T12:19:36.971Z,4.89
2019-01-04T12:22:04.718Z,4.85
2019-01-04T12:24:32.038Z,4.75
2019-01-04T12:26:59.157Z,4.88
2019-01-04T12:29:26.693Z,5.33
2019-01-04T12:31:53.711Z,5.10
2019-01-04T12:34:22.029Z,4.98
2019-01-04T12:36:49.168Z,4.99
2019-01-04T12:39:16.469Z,4.94
2019-01-04T12:41:43.396Z,4.97
2019-01-04T12:44:10.615Z,5.00
2019-01-04T12:46:37.773Z,5.00
2019-01-04T12:49:04.537Z,5.08
2019-01-04T12:51:31.201Z,5.09
2019-01-04T12:53:59.095Z,5.06
2019-01-04T12:56:26.267Z,5.09
2019-01-04T12:58:53.381Z,5.07
2019-01-04T13:01:20.308Z,5.10
2019-01-04T13:03:47.197Z,5.16
2019-01-04T13:06:14.861Z,5.19
2019-01-04T13:08:42.314Z,5.17
2019-01-04T13:11:10.294Z,5.17
2019-01-04T13:13:37.557Z,5.20
2019-01-04T13:16:04.692Z,5.30
2019-01-04T13:18:32.013Z,5.20
2019-01-04T13:20:59.161Z,5.23
2019-01-04T13:23:26.325Z,5.23
2019-01-04T13:25:53.964Z,5.38
2019-01-04T13:28:22.489Z,5.52
2019-01-04T13:30:49.733Z,5.47
2019-01-04T13:33:17.848Z,5.46
2019-01-04T13:35:44.775Z,5.39
2019-01-04T13:38:11.883Z,5.45
2019-01-04T13:40:38.710Z,5.47
2019-01-04T13:43:05.400Z,5.68
2019-01-04T13:45:32.069Z,5.54
2019-01-04T13:47:59.290Z,5.54
2019-01-04T13:50:26.571Z,5.56
2019-01-04T13:52:53.369Z,5.65
2019-01-04T13:55:20.747Z,5.71
2019-01-04T13:57:48.386Z,5.65
2019-01-04T14:00:15.745Z,5.66
2019-01-04T14:02:43.175Z,5.68
2019-01-04T14:05:11.039Z,5.69
2019-01-04T14:07:38.725Z,5.70
2019-01-04T14:10:07.439Z,5.75
2019-01-04T14:12:34.368Z,5.76
2019-01-04T14:15:01.058Z,5.77
2019-01-04T14:17:29.288Z,5.80
2019-01-04T14:19:56.393Z,5.80
2019-01-04T14:22:23.110Z,5.81
2019-01-04T14:24:50.921Z,5.83
2019-01-04T14:27:18.150Z,5.82
2019-01-04T14:29:45.496Z,5.81
2019-01-04T14:32:13.300Z,5.81
2019-01-04T14:34:40.941Z,5.77
2019-01-04T14:37:08.009Z,5.81
2019-01-04T14:39:35.560Z,6.01
2019-01-04T14:42:03.424Z,6.02
2019-01-04T14:44:30.621Z,5.95
2019-01-04T14:46:57.586Z,5.91
2019-01-04T14:49:26.754Z,6.23
2019-01-04T14:51:53.946Z,6.11
2019-01-04T14:54:20.839Z,6.07
2019-01-04T14:56:47.500Z,6.09
2019-01-04T14:59:14.629Z,6.09
2019-01-04T15:01:41.620Z,6.13
2019-01-04T15:04:08.562Z,6.41
2019-01-04T15:06:35.248Z,6.11
2019-01-04T15:09:02.378Z,6.10
2019-01-04T15:11:31.923Z,6.07
2019-01-04T15:13:59.357Z,6.08
2019-01-04T15:16:26.053Z,6.05
2019-01-04T15:18:53.284Z,6.06
2019-01-04T15:21:20.161Z,6.10
2019-01-04T15:23:46.847Z,6.04
2019-01-04T15:26:14.574Z,6.07
2019-01-04T15:28:42.071Z,6.01
2019-01-04T15:31:08.773Z,6.03
2019-01-04T15:33:36.022Z,5.97
2019-01-04T15:36:03.472Z,6.02
2019-01-04T15:38:36.047Z,6.03
2019-01-04T15:40:58.804Z,6.07
2019-01-04T15:43:25.989Z,6.05
2019-01-04T15:45:52.752Z,6.03
2019-01-04T15:48:19.431Z,6.01
2019-01-04T15:50:46.964Z,6.06
2019-01-04T15:53:14.113Z,6.03
2019-01-04T15:55:41.390Z,6.55
2019-01-04T15:58:08.947Z,6.25
2019-01-04T16:00:35.630Z,6.30
2019-01-04T16:03:03.099Z,6.64
2019-01-04T16:05:30.182Z,6.37
2019-01-04T16:07:57.792Z,6.19
2019-01-04T16:10:25.744Z,6.33
2019-01-04T16:12:52.635Z,6.17
2019-01-04T16:15:19.686Z,6.47
2019-01-04T16:17:47.375Z,6.42
2019-01-04T16:20:14.273Z,6.36
2019-01-04T16:22:42.073Z,6.34
2019-01-04T16:25:09.103Z,6.18
2019-01-04T16:27:35.882Z,6.22
2019-01-04T16:30:03.417Z,6.24
2019-01-04T16:32:30.332Z,6.25
2019-01-04T16:34:57.266Z,6.24
2019-01-04T16:37:24.870Z,6.44
2019-01-04T16:39:51.642Z,6.30
2019-01-04T16:42:18.638Z,6.25
2019-01-04T16:44:45.598Z,6.26
2019-01-04T16:47:12.598Z,6.32
2019-01-04T16:49:41.545Z,6.27
2019-01-04T16:52:09.639Z,6.26
2019-01-04T16:54:36.638Z,6.33
2019-01-04T16:57:04.224Z,6.32
2019-01-04T16:59:31.564Z,6.33
2019-01-04T17:01:58.344Z,6.37
2019-01-04T17:04:25.385Z,6.43
2019-01-04T17:06:52.167Z,6.44
2019-01-04T17:09:19.085Z,6.48
2019-01-04T17:11:45.850Z,6.48
2019-01-04T17:14:13.725Z,6.53
2019-01-04T17:16:40.781Z,6.45
2019-01-04T17:19:08.645Z,6.49
2019-01-04T17:21:35.781Z,6.47
2019-01-04T17:24:03.273Z,6.48
2019-01-04T17:26:31.388Z,6.43
2019-01-04T17:28:58.281Z,6.46
2019-01-04T17:31:25.555Z,6.50
2019-01-04T17:33:52.857Z,6.52
2019-01-04T17:36:19.514Z,6.50
2019-01-04T17:38:46.391Z,6.53
2019-01-04T17:41:13.146Z,6.62
2019-01-04T17:43:41.091Z,6.60
2019-01-04T17:46:07.758Z,6.62
2019-01-04T17:48:34.419Z,6.58
2019-01-04T17:51:01.219Z,6.61
2019-01-04T17:53:29.387Z,6.59
2019-01-04T17:55:57.585Z,6.61
2019-01-04T17:58:24.758Z,6.62
2019-01-04T18:00:51.702Z,6.62
2019-01-04T18:03:18.369Z,6.59
2019-01-04T18:05:45.709Z,6.56
2019-01-04T18:08:13.154Z,6.58
2019-01-04T18:10:40.101Z,6.56
2019-01-04T18:13:07.037Z,6.51
2019-01-04T18:15:35.370Z,6.55
2019-01-04T18:18:02.050Z,6.59
2019-01-04T18:20:30.378Z,6.60
2019-01-04T18:22:57.925Z,6.51
2019-01-04T18:25:24.701Z,6.49
2019-01-04T18:27:52.023Z,6.45
2019-01-04T18:30:18.791Z,6.45
2019-01-04T18:32:45.929Z,6.40
2019-01-04T18:35:13.059Z,6.39
2019-01-04T18:37:39.708Z,6.43
2019-01-04T18:40:08.898Z,6.41
2019-01-04T18:42:36.478Z,6.34
2019-01-04T18:45:04.217Z,6.36
2019-01-04T18:47:31.340Z,6.32
2019-01-04T18:49:58.131Z,6.32
2019-01-04T18:52:24.778Z,6.32
2019-01-04T18:54:52.252Z,6.28
2019-01-04T18:57:19.542Z,6.30
2019-01-04T18:59:47.114Z,6.33
2019-01-04T19:02:15.285Z,6.37
2019-01-04T19:04:43.188Z,6.32
2019-01-04T19:07:14.566Z,6.34
2019-01-04T19:09:42.692Z,6.27
2019-01-04T19:12:09.425Z,6.35
2019-01-04T19:14:38.253Z,6.36
2019-01-04T19:17:06.077Z,6.34
2019-01-04T19:19:32.787Z,6.32
2019-01-04T19:22:00.000Z,6.35
2019-01-04T19:24:26.954Z,6.43
2019-01-04T19:26:54.054Z,6.35
2019-01-04T19:29:20.746Z,6.38
2019-01-04T19:31:48.355Z,6.34
2019-01-04T19:34:15.793Z,6.30
2019-01-04T19:36:42.853Z,6.50
2019-01-04T19:39:10.312Z,6.39
2019-01-04T19:41:38.250Z,6.31
2019-01-04T19:44:05.586Z,6.45
2019-01-04T19:46:35.396Z,6.54
2019-01-04T19:49:02.924Z,6.47
2019-01-04T19:51:30.015Z,6.42
2019-01-04T19:53:57.319Z,6.50
2019-01-04T19:56:24.269Z,6.56
2019-01-04T19:58:52.518Z,6.47
2019-01-04T20:01:20.019Z,6.46
2019-01-04T20:03:49.004Z,6.44
2019-01-04T20:07:11.391Z,6.44
2019-01-04T20:10:49.117Z,6.49
2019-01-04T20:14:44.995Z,6.43
2019-01-04T20:17:31.350Z,6.46
2019-01-04T20:20:28.714Z,6.50
2019-01-04T20:23:14.702Z,6.44
2019-01-04T20:26:18.387Z,6.49
2019-01-04T20:29:03.990Z,6.54
2019-01-04T20:32:09.232Z,6.53
2019-01-04T20:34:49.406Z,6.50
2019-01-04T20:37:53.842Z,6.50
2019-01-04T20:40:42.898Z,6.54
2019-01-04T20:43:48.166Z,6.57
2019-01-04T20:46:37.498Z,6.57
2019-01-04T20:49:26.433Z,6.58
2019-01-04T20:52:11.621Z,6.53
2019-01-04T20:55:04.361Z,6.53
2019-01-04T20:57:51.218Z,6.54
2019-01-04T21:00:32.634Z,6.60
2019-01-04T21:03:25.402Z,6.61
2019-01-04T21:06:10.912Z,7.03
2019-01-04T21:09:15.737Z,7.22
2019-01-04T21:12:08.153Z,6.78
2019-01-04T21:15:04.988Z,6.74
2019-01-04T21:17:54.581Z,6.72
2019-01-04T21:20:47.465Z,6.76
2019-01-04T21:23:33.046Z,6.79
2019-01-04T21:26:25.482Z,6.76
2019-01-04T21:29:21.535Z,6.75
2019-01-04T21:32:19.997Z,6.73
2019-01-04T21:35:06.653Z,6.74
2019-01-04T21:37:56.404Z,6.72
2019-01-04T21:40:44.953Z,6.77
2019-01-04T21:43:30.140Z,6.75
2019-01-04T21:46:15.197Z,6.81
2019-01-04T21:49:04.342Z,6.80
2019-01-04T21:51:53.485Z,7.25
2019-01-04T21:54:35.814Z,7.39
2019-01-04T21:57:25.628Z,7.39
2019-01-04T22:00:11.680Z,7.04
2019-01-04T22:02:56.581Z,6.87
2019-01-04T22:06:01.502Z,6.88
2019-01-04T22:08:56.764Z,6.86
2019-01-04T22:11:51.695Z,6.90
2019-01-04T22:14:40.963Z,6.85
2019-01-04T22:17:45.903Z,6.81
2019-01-04T22:20:41.423Z,6.82
2019-01-04T22:23:21.645Z,7.36
2019-01-04T22:26:26.293Z,7.69
2019-01-04T22:29:11.337Z,7.12
2019-01-04T22:31:52.254Z,7.01
2019-01-04T22:34:45.555Z,7.00
2019-01-04T22:37:30.813Z,7.01
2019-01-04T22:40:15.803Z,7.00
2019-01-04T22:43:01.402Z,6.98
2019-01-04T22:45:47.785Z,6.97
2019-01-04T22:48:30.618Z,6.99
2019-01-04T22:51:32.247Z,7.02
2019-01-04T22:54:24.523Z,7.14
2019-01-04T22:57:09.835Z,7.06
2019-01-04T23:00:05.314Z,7.04
2019-01-04T23:02:51.799Z,7.05
2019-01-04T23:05:38.688Z,7.03
2019-01-04T23:08:27.819Z,7.05
2019-01-04T23:11:17.538Z,7.02
2019-01-04T23:14:03.901Z,7.02
2019-01-04T23:16:48.856Z,7.04
2019-01-04T23:19:34.321Z,7.00
2019-01-04T23:22:23.569Z,7.00
2019-01-04T23:25:20.321Z,6.99
2019-01-04T23:28:07.506Z,6.96
2019-01-04T23:30:52.723Z,6.97
2019-01-04T23:33:35.510Z,7.00
2019-01-04T23:36:21.238Z,6.95
2019-01-04T23:39:06.897Z,6.94
2019-01-04T23:41:53.203Z,6.98
2019-01-04T23:44:37.232Z,6.94
2019-01-04T23:47:22.359Z,6.97
2019-01-04T23:50:07.346Z,6.96
2019-01-04T23:52:48.239Z,6.97
2019-01-04T23:55:37.536Z,6.94
2019-01-04T23:58:30.967Z,6.97
